Kuqa, China
Current Conditions -  °F | °C
As of 9:30 AM on Friday 28 Nov 2014 (Local Time) from ZWWW Reporting Station
Clear Clear  
Wind Chill: 11°   Ceiling: Unl
Heat Index: 18°   Visibility: 6mi
Dew Point:   Wind: 4mph
Humidity: 58%   Direction: 260°W
Pressure: 30.24"   Gusts: NA
Location:  41.72°N, 82.95°E
Report Text: ZWWW 280130Z 26002MPS CAVOK M08/M15 Q1024 NOSIG
Loading
Personal Weather Stations






























Interactive Weather Map New forecast layout! Learn more

10-Day Weather Forecast

Advertisements
Track Severe Weather on mobile